This is the latest recevied weather packets stored in our database for station/object N0HEQ. If no packets are shown the sender has not sent any weather packets the latest 1 day(s).
| Time | Temp. | Humidity | Pressure | Rain* | Wind** | Luminosity | Snow |
|---|---|---|---|---|---|---|---|
| 1777977427 | 5° C | 96% | 1014.8 hPa | 0 mm | 1.79 m/s, 18° | 0 W/m² | - |
| 1777977125 | 5.56° C | 96% | 1014.6 hPa | 0 mm | 1.34 m/s, 21° | 0 W/m² | - |
| 1777976822 | 5.56° C | 96% | 1014.3 hPa | 0 mm | 0.89 m/s, 323° | 0 W/m² | - |
| 1777976520 | 5.56° C | 96% | 1014.2 hPa | 0 mm | 0.45 m/s, 19° | 0 W/m² | - |
| 1777976219 | 5.56° C | 96% | 1013.7 hPa | 0 mm | 0.45 m/s, 309° | 0 W/m² | - |
| 1777975914 | 5.56° C | 96% | 1013.9 hPa | 0 mm | 0.89 m/s, 42° | 0 W/m² | - |
| 1777975610 | 5.56° C | 96% | 1014.1 hPa | 0 mm | 0.89 m/s, 68° | 0 W/m² | - |
| 1777975308 | 5.56° C | 96% | 1014.1 hPa | 0 mm | 0.89 m/s, 196° | 0 W/m² | - |
| 1777975003 | 5.56° C | 96% | 1014 hPa | 0 mm | 0.89 m/s, 47° | 0 W/m² | - |
| 1777974701 | 6.11° C | 96% | 1014.2 hPa | 0 mm | 1.34 m/s, 100° | 0 W/m² | - |
| 1777974397 | 6.11° C | 96% | 1014 hPa | 0 mm | 0 m/s | 0 W/m² | - |
| 1777974093 | 6.11° C | 96% | 1014.2 hPa | 0 mm | 1.34 m/s, 45° | 0 W/m² | - |
| 1777973790 | 6.67° C | 96% | 1014.1 hPa | 0 mm | 1.34 m/s, 88° | 0 W/m² | - |
| 1777973487 | 6.67° C | 96% | 1014 hPa | 0 mm | 0.89 m/s, 101° | 0 W/m² | - |
| 1777973184 | 7.78° C | 96% | 1013.6 hPa | 0 mm | 1.34 m/s, 239° | 0 W/m² | - |
| 1777972883 | 8.33° C | 97% | 1013.9 hPa | 0 mm | 0.45 m/s, 79° | 0 W/m² | - |
| 1777972579 | 8.33° C | 97% | 1013.9 hPa | 0 mm | 0.45 m/s, 55° | 0 W/m² | - |
| 1777972278 | 8.33° C | 96% | 1013.6 hPa | 0 mm | 0.45 m/s, 44° | 0 W/m² | - |
| 1777971975 | 8.33° C | 96% | 1013.6 hPa | 0 mm | 0 m/s | 0 W/m² | - |
| 1777971673 | 8.33° C | 96% | 1013.7 hPa | 0 mm | 0.89 m/s, 40° | 0 W/m² | - |
| 1777971370 | 8.33° C | 96% | 1013.5 hPa | 0 mm | 0.45 m/s, 315° | 0 W/m² | - |
| 1777971069 | 8.33° C | 96% | 1013.6 hPa | 0 mm | 0.89 m/s, 54° | 0 W/m² | - |
| 1777970766 | 7.78° C | 96% | 1013.9 hPa | 0 mm | 0.89 m/s, 35° | 0 W/m² | - |
| 1777970464 | 7.78° C | 96% | 1013.7 hPa | 0 mm | 0 m/s | 0 W/m² | - |
| 1777970161 | 7.78° C | 96% | 1014 hPa | 0 mm | 0 m/s | 0 W/m² | - |
* Rain latest hour (hover to see other rain measurements)
** Current wind speed in m/s (hover to see current wind gust speed)